Time;durP1;ratioP1;P1;durP2;ratioP2;P2;SDS_P1;SDS_P2;PMS_P1;PMS_P2;Temp;Humidity;BMP_temperature;BMP_pressure;BME280_temperature;BME280_humidity;BME280_pressure;Samples;Min_cycle;Max_cycle;Signal;HPM_P1;HPM_P2
2023/06/08 00:00:39;;;;;;;2.40;2.10;;;15.40;99.90;;;;;;5052385;28;20463;-70
2023/06/08 00:03:06;;;;;;;2.23;2.03;;;15.40;99.90;;;;;;5052538;28;20490;-70
2023/06/08 00:05:43;;;;;;;3.83;2.23;;;15.40;99.90;;;;;;5052452;28;20783;-71
2023/06/08 00:08:11;;;;;;;2.23;1.90;;;15.40;99.90;;;;;;5052225;28;20486;-70
2023/06/08 00:10:37;;;;;;;2.43;2.23;;;15.40;99.90;;;;;;5051760;28;20459;-71
2023/06/08 00:13:04;;;;;;;3.10;2.80;;;15.40;99.90;;;;;;5052000;28;20851;-70
2023/06/08 00:15:32;;;;;;;2.50;2.30;;;15.40;99.90;;;;;;5052220;28;20517;-71
2023/06/08 00:18:00;;;;;;;2.13;1.93;;;15.40;99.90;;;;;;5051963;28;20486;-71
2023/06/08 00:20:27;;;;;;;2.33;2.10;;;15.30;99.90;;;;;;5051819;28;20459;-71
2023/06/08 00:22:56;;;;;;;2.50;2.30;;;15.30;99.90;;;;;;5052059;28;20845;-71
2023/06/08 00:25:23;;;;;;;3.67;2.53;;;15.40;99.90;;;;;;5052155;28;20470;-70
2023/06/08 00:27:50;;;;;;;2.20;2.00;;;15.30;99.90;;;;;;5051587;28;20485;-70
2023/06/08 00:30:16;;;;;;;2.70;2.50;;;15.30;99.90;;;;;;5051632;28;20467;-70
2023/06/08 00:32:43;;;;;;;2.83;2.10;;;15.30;99.90;;;;;;5051742;28;20486;-70
2023/06/08 00:35:10;;;;;;;3.10;2.80;;;15.30;99.90;;;;;;5051750;28;20455;-70
2023/06/08 00:37:37;;;;;;;2.53;2.30;;;15.30;99.90;;;;;;5051641;28;20486;-71
2023/06/08 00:40:06;;;;;;;2.37;2.10;;;15.30;99.90;;;;;;5051560;28;20835;-70
2023/06/08 00:42:32;;;;;;;3.30;3.00;;;15.30;99.90;;;;;;5043541;28;20467;-70
2023/06/08 00:44:59;;;;;;;3.23;2.93;;;15.30;99.90;;;;;;5051671;28;20463;-70
2023/06/08 00:47:26;;;;;;;2.40;2.20;;;15.30;99.90;;;;;;5051688;28;20478;-70
2023/06/08 00:49:53;;;;;;;2.83;2.30;;;15.30;99.90;;;;;;5051260;28;20463;-70
2023/06/08 00:52:21;;;;;;;3.83;2.60;;;15.30;99.90;;;;;;5051085;28;20494;-70
2023/06/08 00:54:49;;;;;;;9.03;2.87;;;15.20;99.90;;;;;;5051240;28;20451;-70
2023/06/08 00:57:19;;;;;;;3.87;3.00;;;15.20;99.90;;;;;;5051143;28;20469;-70
2023/06/08 00:59:49;;;;;;;5.03;3.30;;;15.20;99.90;;;;;;5051619;28;20798;-70
2023/06/08 01:02:17;;;;;;;2.50;2.30;;;15.20;99.90;;;;;;5051067;28;20875;-70
2023/06/08 01:04:45;;;;;;;2.60;2.40;;;15.10;99.90;;;;;;5051345;28;20498;-70
2023/06/08 01:07:19;;;;;;;2.43;2.23;;;15.10;99.90;;;;;;5051304;28;20842;-70
2023/06/08 01:09:53;;;;;;;3.90;2.73;;;15.10;99.90;;;;;;5051072;28;20520;-70
2023/06/08 01:12:29;;;;;;;2.90;2.30;;;15.10;99.90;;;;;;5050695;28;20997;-70
2023/06/08 01:15:01;;;;;;;2.57;2.37;;;15.10;99.90;;;;;;5051064;28;20459;-70
2023/06/08 01:17:32;;;;;;;2.80;2.47;;;15.00;99.90;;;;;;5051305;28;20514;-70
2023/06/08 01:20:12;;;;;;;2.80;2.50;;;15.00;99.90;;;;;;5050748;28;20487;-70
2023/06/08 01:22:53;;;;;;;3.10;2.57;;;15.00;99.90;;;;;;5050649;28;20459;-70
2023/06/08 01:25:22;;;;;;;2.50;2.30;;;14.90;99.90;;;;;;5050782;28;20459;-70
2023/06/08 01:27:49;;;;;;;2.43;1.90;;;14.90;99.90;;;;;;5050871;28;20490;-70
2023/06/08 01:30:16;;;;;;;2.70;2.50;;;14.90;99.90;;;;;;5050255;28;20951;-70
2023/06/08 01:32:45;;;;;;;2.73;2.50;;;14.90;99.90;;;;;;5050489;28;20479;-70
2023/06/08 01:35:12;;;;;;;3.60;2.27;;;14.80;99.90;;;;;;5050581;28;20837;-70
2023/06/08 01:37:46;;;;;;;4.07;2.50;;;14.80;99.90;;;;;;5050583;28;20479;-70
2023/06/08 01:40:19;;;;;;;3.23;2.70;;;14.70;99.90;;;;;;5049609;28;20460;-70
2023/06/08 01:42:51;;;;;;;3.97;3.03;;;14.80;99.90;;;;;;5050535;28;20821;-70
2023/06/08 01:45:22;;;;;;;3.07;2.80;;;14.70;99.90;;;;;;5050228;28;20467;-70
2023/06/08 01:47:52;;;;;;;3.47;3.17;;;14.70;99.90;;;;;;5050507;28;20483;-70
2023/06/08 01:50:20;;;;;;;4.20;2.93;;;14.70;99.90;;;;;;5050072;28;20877;-70
2023/06/08 01:52:47;;;;;;;2.87;2.50;;;14.70;99.90;;;;;;5049986;28;20884;-70
2023/06/08 01:55:17;;;;;;;4.33;2.70;;;14.70;99.90;;;;;;5050478;28;20467;-70
2023/06/08 01:57:44;;;;;;;3.47;3.07;;;14.70;99.90;;;;;;5050186;28;20486;-70
2023/06/08 02:00:15;;;;;;;4.20;2.90;;;14.70;99.90;;;;;;5050065;28;20460;-70
2023/06/08 02:02:41;;;;;;;3.13;2.83;;;14.60;99.90;;;;;;5042794;28;20847;-69
2023/06/08 02:05:10;;;;;;;5.60;3.07;;;14.50;99.90;;;;;;5050361;28;20467;-70
2023/06/08 02:07:37;;;;;;;7.00;3.03;;;14.50;99.90;;;;;;5042065;28;20485;-70
2023/06/08 02:10:05;;;;;;;4.20;3.03;;;14.50;99.90;;;;;;5049968;28;20471;-70
2023/06/08 02:12:33;;;;;;;4.17;3.00;;;14.40;99.90;;;;;;5049761;28;20487;-70
2023/06/08 02:15:00;;;;;;;5.50;3.00;;;14.40;99.90;;;;;;5050067;28;20464;-70
2023/06/08 02:17:33;;;;;;;4.53;2.97;;;14.40;99.90;;;;;;5049887;28;21061;-70
2023/06/08 02:20:05;;;;;;;3.43;3.13;;;14.40;99.90;;;;;;5049962;28;20459;-70
2023/06/08 02:22:32;;;;;;;3.43;2.90;;;14.40;99.90;;;;;;5049714;28;20455;-70
2023/06/08 02:24:59;;;;;;;3.87;2.77;;;14.30;99.90;;;;;;5050019;28;20467;-70
2023/06/08 02:27:27;;;;;;;5.10;2.80;;;14.30;99.90;;;;;;5049875;28;20479;-70
2023/06/08 02:29:53;;;;;;;3.27;2.60;;;14.20;99.90;;;;;;5049831;28;20524;-70
2023/06/08 02:32:20;;;;;;;4.13;3.73;;;14.20;99.90;;;;;;5049600;28;20605;-70
2023/06/08 02:34:55;;;;;;;3.03;2.67;;;14.10;99.90;;;;;;5049916;28;20455;-70
2023/06/08 02:37:22;;;;;;;4.27;2.73;;;14.20;99.90;;;;;;5049631;28;20544;-70
2023/06/08 02:39:49;;;;;;;2.93;2.63;;;14.10;99.90;;;;;;5049732;28;20463;-70
2023/06/08 02:42:17;;;;;;;2.33;2.13;;;14.10;99.90;;;;;;5049498;28;20455;-70
2023/06/08 02:44:44;;;;;;;4.53;2.57;;;14.10;99.90;;;;;;5049779;28;20470;-70
2023/06/08 02:47:11;;;;;;;2.60;2.33;;;14.00;99.90;;;;;;5049895;28;20837;-70
2023/06/08 02:49:38;;;;;;;3.40;3.10;;;14.00;99.90;;;;;;5049564;28;20467;-70
2023/06/08 02:52:07;;;;;;;2.53;2.33;;;14.00;99.90;;;;;;5052546;28;20462;-70
2023/06/08 02:54:34;;;;;;;3.17;2.87;;;13.90;99.90;;;;;;5053563;28;20459;-70
2023/06/08 02:57:01;;;;;;;2.80;2.60;;;13.90;99.90;;;;;;5053635;28;20447;-70
2023/06/08 02:59:29;;;;;;;2.60;2.40;;;13.90;99.90;;;;;;5053186;28;20451;-70
2023/06/08 03:01:56;;;;;;;3.20;2.60;;;13.80;99.90;;;;;;5053118;28;20836;-70
2023/06/08 03:04:24;;;;;;;2.83;2.53;;;13.80;99.90;;;;;;5053538;28;20527;-70
2023/06/08 03:06:53;;;;;;;2.63;2.43;;;13.80;99.90;;;;;;5053277;28;20455;-70
2023/06/08 03:09:22;;;;;;;2.90;2.70;;;13.70;99.90;;;;;;5052980;28;20569;-70
2023/06/08 03:11:48;;;;;;;2.60;2.40;;;13.80;99.90;;;;;;5053107;28;20967;-70
2023/06/08 03:14:16;;;;;;;2.60;2.40;;;13.70;99.90;;;;;;5053343;28;20479;-70
2023/06/08 03:16:44;;;;;;;3.30;3.10;;;13.70;99.90;;;;;;5053424;28;20890;-70
2023/06/08 03:19:11;;;;;;;3.53;2.53;;;13.60;99.90;;;;;;5053171;28;20486;-70
2023/06/08 03:21:38;;;;;;;3.00;2.10;;;13.60;99.90;;;;;;5052680;28;20521;-70
2023/06/08 03:24:05;;;;;;;4.40;2.53;;;13.50;99.90;;;;;;5053067;28;20557;-70
2023/06/08 03:26:33;;;;;;;2.90;2.70;;;13.50;99.90;;;;;;5053047;28;20466;-70
2023/06/08 03:29:00;;;;;;;3.77;3.47;;;13.50;99.90;;;;;;5052918;28;21080;-70
2023/06/08 03:31:29;;;;;;;2.40;2.20;;;13.50;99.90;;;;;;5052454;28;20466;-70
2023/06/08 03:33:55;;;;;;;2.90;2.70;;;13.40;99.90;;;;;;5052853;28;20574;-70
2023/06/08 03:36:33;;;;;;;2.70;2.50;;;13.40;99.90;;;;;;5052749;28;20455;-70
2023/06/08 03:39:00;;;;;;;3.10;2.80;;;13.40;99.90;;;;;;5052590;28;20475;-70
2023/06/08 03:41:27;;;;;;;3.87;2.80;;;13.30;99.90;;;;;;5052165;28;20459;-70
2023/06/08 03:43:55;;;;;;;2.70;2.50;;;13.30;99.90;;;;;;5052533;28;20459;-70
2023/06/08 03:46:22;;;;;;;2.70;2.50;;;13.30;99.90;;;;;;5052678;28;20554;-70
2023/06/08 03:48:49;;;;;;;2.93;2.63;;;13.30;99.90;;;;;;5052572;28;20491;-70
2023/06/08 03:51:16;;;;;;;3.47;3.17;;;13.30;99.90;;;;;;5052029;28;20467;-70
2023/06/08 03:53:43;;;;;;;2.20;2.10;;;13.30;99.90;;;;;;5052713;28;20475;-70
2023/06/08 03:56:10;;;;;;;2.87;2.63;;;13.30;99.90;;;;;;5052969;28;20822;-70
2023/06/08 03:58:38;;;;;;;4.17;2.93;;;13.30;99.90;;;;;;5052549;28;20490;-70
2023/06/08 04:01:06;;;;;;;3.53;2.57;;;13.30;99.90;;;;;;5052112;28;20566;-70
2023/06/08 04:03:34;;;;;;;3.87;2.87;;;13.30;99.90;;;;;;5051910;28;20473;-70
2023/06/08 04:06:01;;;;;;;3.30;2.97;;;13.30;99.90;;;;;;5052385;28;20502;-70
2023/06/08 04:08:31;;;;;;;3.27;2.90;;;13.20;99.90;;;;;;5052612;28;20476;-70
2023/06/08 04:10:58;;;;;;;3.10;2.80;;;13.30;99.90;;;;;;5052093;28;20459;-70
2023/06/08 04:13:25;;;;;;;3.20;3.00;;;13.30;99.90;;;;;;5052147;28;20475;-70
2023/06/08 04:15:51;;;;;;;3.40;2.50;;;13.30;99.90;;;;;;5052501;28;20836;-70
2023/06/08 04:18:21;;;;;;;2.93;2.70;;;13.30;99.90;;;;;;5052483;28;20852;-70
2023/06/08 04:20:48;;;;;;;2.90;2.70;;;13.30;99.90;;;;;;5051695;28;20538;-70
2023/06/08 04:23:15;;;;;;;3.80;2.97;;;13.30;99.90;;;;;;5052270;28;21002;-70
2023/06/08 04:25:42;;;;;;;2.83;2.63;;;13.30;99.90;;;;;;5051937;28;20559;-70
2023/06/08 04:28:09;;;;;;;3.10;2.80;;;13.30;99.90;;;;;;5052058;28;20475;-70
2023/06/08 04:30:35;;;;;;;3.03;2.73;;;13.30;99.90;;;;;;5051415;28;20466;-70
2023/06/08 04:33:02;;;;;;;3.10;2.80;;;13.30;99.90;;;;;;5051925;28;20487;-70
2023/06/08 04:35:32;;;;;;;3.03;2.73;;;13.30;99.90;;;;;;5051899;28;20459;-70
2023/06/08 04:37:58;;;;;;;2.83;2.60;;;13.40;99.90;;;;;;5051788;28;20519;-70
2023/06/08 04:40:26;;;;;;;2.70;2.50;;;13.50;99.90;;;;;;5051740;28;20951;-70
2023/06/08 04:42:52;;;;;;;2.97;2.77;;;13.60;99.90;;;;;;5051346;28;20462;-70
2023/06/08 04:45:20;;;;;;;3.40;2.50;;;13.70;99.90;;;;;;5051562;28;20467;-70
2023/06/08 04:47:47;;;;;;;3.10;2.60;;;13.80;99.90;;;;;;5051164;28;20536;-70
2023/06/08 04:50:14;;;;;;;3.33;2.87;;;13.90;99.90;;;;;;5051394;28;20459;-70
2023/06/08 04:52:45;;;;;;;6.80;3.20;;;14.00;99.90;;;;;;5051068;28;20910;-70
2023/06/08 04:55:13;;;;;;;3.30;2.70;;;14.10;99.90;;;;;;5051629;28;20455;-70
2023/06/08 04:57:40;;;;;;;3.07;2.60;;;14.20;99.90;;;;;;5051141;28;20568;-70
2023/06/08 05:00:09;;;;;;;3.27;2.97;;;14.30;99.90;;;;;;5051189;28;20459;-70
2023/06/08 05:02:36;;;;;;;3.20;2.90;;;14.40;99.90;;;;;;5051026;28;20485;-70
2023/06/08 05:05:03;;;;;;;3.10;2.80;;;14.50;99.90;;;;;;5051369;28;20451;-70
2023/06/08 05:07:30;;;;;;;3.17;2.80;;;14.60;99.90;;;;;;5051109;28;20479;-70
2023/06/08 05:10:00;;;;;;;3.60;3.30;;;14.70;99.90;;;;;;5050930;28;20466;-70
2023/06/08 05:12:27;;;;;;;2.67;2.47;;;14.80;99.90;;;;;;5050673;28;20466;-70
2023/06/08 05:14:54;;;;;;;3.00;2.70;;;14.90;99.90;;;;;;5049927;28;20479;-69
2023/06/08 05:17:22;;;;;;;3.27;2.70;;;15.00;99.90;;;;;;5051057;28;20459;-70
2023/06/08 05:19:49;;;;;;;3.53;3.23;;;15.20;99.90;;;;;;5042636;28;20966;-70
2023/06/08 05:22:16;;;;;;;2.50;2.30;;;15.30;99.90;;;;;;5050752;28;20459;-70
2023/06/08 05:24:43;;;;;;;3.80;3.20;;;15.40;99.90;;;;;;5050704;28;20463;-70
2023/06/08 05:27:11;;;;;;;2.63;2.43;;;15.50;99.90;;;;;;5050705;28;20467;-70
2023/06/08 05:29:38;;;;;;;2.80;2.60;;;15.60;99.90;;;;;;5050368;28;20996;-70
2023/06/08 05:32:07;;;;;;;3.77;3.20;;;15.70;99.90;;;;;;5050398;28;20555;-70
2023/06/08 05:34:33;;;;;;;3.53;3.23;;;15.80;99.90;;;;;;5050535;28;21017;-70
2023/06/08 05:37:00;;;;;;;3.33;3.03;;;16.00;99.90;;;;;;5050537;28;20463;-69
2023/06/08 05:39:27;;;;;;;3.33;3.03;;;16.00;99.90;;;;;;5050198;28;20467;-69
2023/06/08 05:41:53;;;;;;;3.73;3.30;;;16.10;99.90;;;;;;5050307;28;20816;-70
2023/06/08 05:44:21;;;;;;;3.10;2.80;;;16.30;99.90;;;;;;5050689;28;20470;-70
2023/06/08 05:46:48;;;;;;;3.60;3.30;;;16.50;99.90;;;;;;5050205;28;20966;-70
2023/06/08 05:49:15;;;;;;;3.13;2.83;;;16.60;99.90;;;;;;5050342;28;20483;-70
2023/06/08 05:51:41;;;;;;;3.57;3.27;;;16.80;99.90;;;;;;5049877;28;20459;-70
2023/06/08 05:54:08;;;;;;;3.80;2.97;;;16.90;99.90;;;;;;5050376;28;20605;-70
2023/06/08 05:56:35;;;;;;;4.03;3.63;;;17.10;99.90;;;;;;5050255;28;20466;-70
2023/06/08 05:59:01;;;;;;;3.60;3.30;;;17.20;99.90;;;;;;5050224;28;20511;-70
2023/06/08 06:01:31;;;;;;;3.63;3.30;;;17.30;99.90;;;;;;5050104;28;20463;-70
2023/06/08 06:03:57;;;;;;;3.20;2.90;;;17.30;99.90;;;;;;5050575;28;20469;-70
2023/06/08 06:06:24;;;;;;;3.87;3.30;;;17.40;99.90;;;;;;5050494;28;20463;-70
2023/06/08 06:08:51;;;;;;;3.97;3.13;;;17.60;99.90;;;;;;5050388;28;20526;-70
2023/06/08 06:11:17;;;;;;;4.23;2.73;;;17.70;99.90;;;;;;5050325;28;20467;-70
2023/06/08 06:13:45;;;;;;;3.07;2.83;;;17.80;99.90;;;;;;5050151;28;20483;-70
2023/06/08 06:16:11;;;;;;;2.63;2.43;;;18.00;99.90;;;;;;5050433;28;20482;-70
2023/06/08 06:18:39;;;;;;;3.67;3.37;;;18.10;99.90;;;;;;5050307;28;20515;-70
2023/06/08 06:21:06;;;;;;;3.63;3.07;;;18.30;99.90;;;;;;5049820;28;20928;-70
2023/06/08 06:23:33;;;;;;;3.20;3.00;;;18.40;99.90;;;;;;5050141;28;20534;-70
2023/06/08 06:26:00;;;;;;;3.30;3.00;;;18.50;99.90;;;;;;5051790;28;20462;-70
2023/06/08 06:28:26;;;;;;;3.47;2.87;;;18.60;99.90;;;;;;5054368;28;20479;-70
2023/06/08 06:30:53;;;;;;;4.03;3.10;;;18.70;99.90;;;;;;5053746;28;20470;-70
2023/06/08 06:33:20;;;;;;;3.37;3.07;;;18.90;99.90;;;;;;5054344;28;20463;-70
2023/06/08 06:35:48;;;;;;;2.90;2.70;;;18.90;99.90;;;;;;5054109;28;20887;-70
2023/06/08 06:38:15;;;;;;;2.77;2.50;;;18.90;99.90;;;;;;5054200;28;20486;-70
2023/06/08 06:40:41;;;;;;;2.70;2.50;;;19.00;99.90;;;;;;5053517;28;20763;-70
2023/06/08 06:43:09;;;;;;;3.07;2.80;;;19.00;99.90;;;;;;5053964;28;20470;-70
2023/06/08 06:45:37;;;;;;;3.27;3.07;;;19.10;99.90;;;;;;5053941;28;20834;-70
2023/06/08 06:48:05;;;;;;;3.73;3.13;;;19.20;99.90;;;;;;5053826;28;20562;-70
2023/06/08 06:50:32;;;;;;;3.67;2.87;;;19.30;99.90;;;;;;5053414;28;20466;-70
2023/06/08 06:53:00;;;;;;;2.87;2.67;;;19.40;99.90;;;;;;5053876;28;20902;-70
2023/06/08 06:55:27;;;;;;;3.90;3.50;;;19.50;99.90;;;;;;5053810;28;21009;-70
2023/06/08 06:57:53;;;;;;;3.83;3.43;;;19.60;99.90;;;;;;5045406;28;20475;-70
2023/06/08 07:00:21;;;;;;;3.23;2.93;;;19.70;99.90;;;;;;5053575;28;20463;-70
2023/06/08 07:02:48;;;;;;;3.27;3.00;;;19.70;99.90;;;;;;5053298;28;20554;-70
2023/06/08 07:05:15;;;;;;;3.40;3.10;;;19.80;99.90;;;;;;5053747;28;21187;-70
2023/06/08 07:07:42;;;;;;;4.20;3.57;;;19.90;99.90;;;;;;5053376;28;20869;-70
2023/06/08 07:10:11;;;;;;;3.53;3.23;;;20.00;99.90;;;;;;5053504;28;20464;-70
2023/06/08 07:12:37;;;;;;;2.83;2.63;;;20.00;99.90;;;;;;5053011;28;20468;-70
2023/06/08 07:15:05;;;;;;;8.50;3.33;;;20.20;99.90;;;;;;5053244;28;21024;-70
2023/06/08 07:17:31;;;;;;;4.10;3.70;;;20.30;99.90;;;;;;5053484;28;20510;-70
2023/06/08 07:19:59;;;;;;;3.30;2.93;;;20.50;99.90;;;;;;5053144;28;20843;-70
2023/06/08 07:22:25;;;;;;;3.93;3.60;;;20.60;99.90;;;;;;5053335;28;20460;-70
2023/06/08 07:24:53;;;;;;;3.83;3.43;;;20.60;99.90;;;;;;5053000;28;20513;-70
2023/06/08 07:27:21;;;;;;;3.50;3.20;;;20.60;99.90;;;;;;5053384;28;20817;-70
2023/06/08 07:29:48;;;;;;;3.47;3.13;;;20.70;99.90;;;;;;5053068;28;20460;-70
2023/06/08 07:32:15;;;;;;;3.43;3.13;;;20.80;99.90;;;;;;5053160;28;20852;-70
2023/06/08 07:34:42;;;;;;;3.70;3.40;;;20.80;99.90;;;;;;5052958;28;20483;-70
2023/06/08 07:37:08;;;;;;;3.70;3.40;;;20.90;99.90;;;;;;5051904;28;20467;-70
2023/06/08 07:39:35;;;;;;;2.93;2.63;;;21.00;99.90;;;;;;5052890;28;20491;-70
2023/06/08 07:42:02;;;;;;;3.47;3.17;;;21.10;99.90;;;;;;5052784;28;20462;-70
2023/06/08 07:44:30;;;;;;;3.07;2.77;;;21.20;99.90;;;;;;5052934;28;20550;-70
2023/06/08 07:46:57;;;;;;;4.10;2.80;;;21.20;99.90;;;;;;5052898;28;20472;-70
2023/06/08 07:49:24;;;;;;;3.40;3.10;;;21.30;99.90;;;;;;5052789;28;20489;-70
2023/06/08 07:51:51;;;;;;;5.10;3.40;;;21.50;99.90;;;;;;5052672;28;20542;-70
2023/06/08 07:54:19;;;;;;;3.30;2.77;;;21.60;99.90;;;;;;5052852;28;20489;-70
2023/06/08 07:56:46;;;;;;;3.47;3.17;;;21.70;99.90;;;;;;5052717;28;20463;-70
2023/06/08 07:59:13;;;;;;;3.03;2.73;;;21.80;99.90;;;;;;5052520;28;20485;-71
2023/06/08 08:01:42;;;;;;;3.40;3.07;;;21.90;99.90;;;;;;5052372;28;20466;-70
2023/06/08 08:04:08;;;;;;;3.40;3.10;;;22.00;99.90;;;;;;5052620;28;20851;-70
2023/06/08 08:06:35;;;;;;;3.13;2.83;;;22.10;99.90;;;;;;5052539;28;20471;-70
2023/06/08 08:09:03;;;;;;;3.17;2.90;;;22.20;99.90;;;;;;5052420;28;20513;-70
2023/06/08 08:11:29;;;;;;;4.10;3.70;;;22.30;99.90;;;;;;5052108;28;20954;-70
2023/06/08 08:13:57;;;;;;;3.90;3.60;;;22.30;99.90;;;;;;5052015;28;20546;-70
2023/06/08 08:16:23;;;;;;;3.37;3.07;;;22.40;99.90;;;;;;5052681;28;20478;-70
2023/06/08 08:18:51;;;;;;;3.50;3.20;;;22.40;99.90;;;;;;5051933;28;20482;-71
2023/06/08 08:21:18;;;;;;;3.27;3.07;;;22.30;99.90;;;;;;5051984;28;20510;-70
2023/06/08 08:23:45;;;;;;;3.17;2.83;;;22.40;99.90;;;;;;5052157;28;20467;-70
2023/06/08 08:26:12;;;;;;;4.20;3.00;;;22.60;99.90;;;;;;5052258;28;20451;-70
2023/06/08 08:28:41;;;;;;;2.70;2.50;;;22.70;99.90;;;;;;5052365;28;20490;-68
2023/06/08 08:31:08;;;;;;;3.77;3.47;;;22.80;99.90;;;;;;5051924;28;20529;-70
2023/06/08 08:33:34;;;;;;;4.07;3.67;;;22.90;99.90;;;;;;5052050;28;20468;-71
2023/06/08 08:36:03;;;;;;;3.73;3.30;;;23.10;99.90;;;;;;5051917;28;20478;-70
2023/06/08 08:38:29;;;;;;;3.83;3.53;;;23.20;99.90;;;;;;5052215;28;20487;-70
2023/06/08 08:41:01;;;;;;;3.40;3.10;;;23.30;99.90;;;;;;5051485;28;20834;-71
2023/06/08 08:43:50;;;;;;;3.50;3.20;;;23.30;99.90;;;;;;5051738;28;20969;-70
2023/06/08 08:46:18;;;;;;;3.70;3.40;;;23.30;99.90;;;;;;5051978;28;20490;-70
2023/06/08 08:48:44;;;;;;;4.03;3.70;;;23.40;99.90;;;;;;5051346;28;20479;-70
2023/06/08 08:51:20;;;;;;;3.20;2.90;;;23.60;99.90;;;;;;5051378;28;20465;-70
2023/06/08 08:53:48;;;;;;;4.00;3.70;;;23.70;99.90;;;;;;5051481;28;20464;-70
2023/06/08 08:56:19;;;;;;;3.53;3.23;;;23.70;99.90;;;;;;5051701;28;20601;-70
2023/06/08 08:58:48;;;;;;;3.90;3.43;;;23.80;99.90;;;;;;5051347;28;20478;-70
2023/06/08 09:01:16;;;;;;;3.30;3.07;;;23.90;99.90;;;;;;5051531;28;20842;-70
2023/06/08 09:03:42;;;;;;;3.80;3.50;;;23.90;99.90;;;;;;5051545;28;20514;-70
2023/06/08 09:06:09;;;;;;;3.33;3.03;;;23.90;99.90;;;;;;5051528;28;20836;-70
2023/06/08 09:08:38;;;;;;;3.80;3.50;;;24.00;99.90;;;;;;5051392;28;20481;-70
2023/06/08 09:11:06;;;;;;;6.03;3.37;;;24.00;99.90;;;;;;5050947;28;20474;-70
2023/06/08 09:13:33;;;;;;;5.60;3.20;;;24.00;99.90;;;;;;5051324;28;20465;-70
2023/06/08 09:16:11;;;;;;;4.07;3.70;;;24.00;99.90;;;;;;5050902;28;20554;-70
2023/06/08 09:18:38;;;;;;;4.00;3.60;;;24.10;99.90;;;;;;5051057;28;20999;-70
2023/06/08 09:21:22;;;;;;;3.40;3.07;;;24.10;99.90;;;;;;5050441;28;20465;-70
2023/06/08 09:24:08;;;;;;;3.47;3.17;;;24.10;99.90;;;;;;5050656;28;20474;-70
2023/06/08 09:26:36;;;;;;;4.27;3.53;;;24.30;99.90;;;;;;5050890;28;20454;-70
2023/06/08 09:29:04;;;;;;;4.40;4.00;;;24.30;99.90;;;;;;5050996;28;20885;-70
2023/06/08 09:31:31;;;;;;;3.50;3.30;;;24.30;99.90;;;;;;5050797;28;20473;-70
2023/06/08 09:34:06;;;;;;;3.20;2.90;;;24.40;99.90;;;;;;5050894;28;20468;-70
2023/06/08 09:36:36;;;;;;;3.50;3.20;;;24.60;99.90;;;;;;5051234;28;20520;-70
2023/06/08 09:39:05;;;;;;;3.80;3.47;;;24.60;99.90;;;;;;5050897;28;20490;-70
2023/06/08 09:41:33;;;;;;;3.90;3.43;;;24.60;99.90;;;;;;5050849;28;20462;-70
2023/06/08 09:44:01;;;;;;;3.23;3.00;;;24.60;99.90;;;;;;5050742;28;20465;-70
2023/06/08 09:46:36;;;;;;;3.30;3.00;;;24.50;99.90;;;;;;5051001;28;20465;-70
2023/06/08 09:49:05;;;;;;;3.50;3.20;;;24.40;99.90;;;;;;5050540;28;20561;-70
2023/06/08 09:51:34;;;;;;;3.90;3.60;;;24.30;99.90;;;;;;5050828;28;20464;-70
2023/06/08 09:54:02;;;;;;;3.57;3.27;;;24.20;99.90;;;;;;5050531;28;20466;-70
2023/06/08 09:56:30;;;;;;;3.40;3.10;;;24.20;99.90;;;;;;5050440;28;20475;-70
2023/06/08 09:58:58;;;;;;;4.70;3.60;;;24.20;99.90;;;;;;5050184;28;20483;-70
2023/06/08 10:01:31;;;;;;;3.30;3.00;;;24.10;99.90;;;;;;5049280;28;20504;-70
2023/06/08 10:04:00;;;;;;;3.10;2.90;;;24.20;99.90;;;;;;5050316;28;20461;-70
2023/06/08 10:06:29;;;;;;;3.53;3.30;;;24.30;99.90;;;;;;5050600;28;20493;-70
2023/06/08 10:08:59;;;;;;;3.63;3.33;;;24.60;99.30;;;;;;5050082;28;20489;-70
2023/06/08 10:11:27;;;;;;;4.30;3.90;;;24.80;99.90;;;;;;5049995;28;20459;-70
2023/06/08 10:13:57;;;;;;;3.30;3.00;;;24.90;99.70;;;;;;5050036;28;20469;-70
2023/06/08 10:16:24;;;;;;;3.70;3.33;;;25.10;99.50;;;;;;5050543;28;20489;-70
2023/06/08 10:18:51;;;;;;;3.40;3.10;;;25.20;98.80;;;;;;5049822;28;20837;-70
2023/06/08 10:21:18;;;;;;;3.87;3.57;;;25.30;99.10;;;;;;5049936;28;20467;-70
2023/06/08 10:23:46;;;;;;;3.00;2.80;;;25.40;98.30;;;;;;5050083;28;20969;-70
2023/06/08 10:26:13;;;;;;;2.93;2.73;;;25.60;98.60;;;;;;5050148;28;20459;-70
2023/06/08 10:29:08;;;;;;;3.03;2.80;;;25.70;99.90;;;;;;5050289;28;20482;-70
2023/06/08 10:31:38;;;;;;;4.73;3.80;;;25.80;98.00;;;;;;5046172;28;20843;-70
2023/06/08 10:34:07;;;;;;;3.73;3.23;;;25.90;96.70;;;;;;5050015;28;20461;-70
2023/06/08 10:36:36;;;;;;;3.50;3.20;;;25.90;97.10;;;;;;5050261;28;21016;-70
2023/06/08 10:39:10;;;;;;;3.20;2.90;;;26.00;96.00;;;;;;5049828;28;20487;-70
2023/06/08 10:41:45;;;;;;;3.80;3.50;;;26.20;97.00;;;;;;5049906;28;20465;-70
2023/06/08 10:44:27;;;;;;;3.27;2.97;;;26.10;97.30;;;;;;5121480;22;20494;-68
2023/06/08 10:47:00;;;;;;;3.57;3.27;;;26.30;97.60;;;;;;5050469;28;20858;-69
2023/06/08 10:49:32;;;;;;;3.80;3.40;;;26.40;96.50;;;;;;5030215;28;20464;-69
2023/06/08 10:51:59;;;;;;;3.30;3.00;;;26.40;94.10;;;;;;5029993;28;20461;-69
2023/06/08 10:54:26;;;;;;;3.70;3.30;;;26.40;94.60;;;;;;5030026;28;20847;-68
2023/06/08 10:56:55;;;;;;;3.60;3.30;;;26.50;96.50;;;;;;5030038;28;20488;-68
2023/06/08 10:59:25;;;;;;;4.10;3.80;;;26.70;95.00;;;;;;5029785;28;20999;-69
2023/06/08 11:01:53;;;;;;;3.50;3.20;;;26.90;96.50;;;;;;5021278;28;20461;-68
2023/06/08 11:04:21;;;;;;;3.70;3.30;;;27.10;96.70;;;;;;5030259;28;20490;-69
2023/06/08 11:06:48;;;;;;;3.87;3.57;;;27.20;93.80;;;;;;5021947;28;20468;-69
2023/06/08 11:09:15;;;;;;;3.47;3.17;;;27.30;96.60;;;;;;5030079;28;20997;-68
2023/06/08 11:11:51;;;;;;;3.43;3.13;;;27.40;93.60;;;;;;5030848;28;20468;-69
2023/06/08 11:14:21;;;;;;;3.60;3.30;;;27.40;94.20;;;;;;5027034;28;20967;-69
2023/06/08 11:16:54;;;;;;;4.10;3.23;;;27.20;94.40;;;;;;5017252;28;21031;-69
2023/06/08 11:19:21;;;;;;;4.07;3.67;;;27.10;94.50;;;;;;5033322;28;20925;-69
2023/06/08 11:21:51;;;;;;;3.63;3.33;;;26.80;92.30;;;;;;5033599;28;20469;-69
2023/06/08 11:24:18;;;;;;;3.73;3.43;;;26.50;92.40;;;;;;5033496;28;20462;-69
2023/06/08 11:26:45;;;;;;;5.67;4.17;;;26.30;95.00;;;;;;5033535;28;20469;-68
2023/06/08 11:29:12;;;;;;;3.93;3.30;;;26.20;96.00;;;;;;5033057;28;20482;-69
2023/06/08 11:31:41;;;;;;;3.60;3.30;;;26.20;95.50;;;;;;5033197;28;20827;-68
2023/06/08 11:34:13;;;;;;;3.70;3.40;;;26.40;94.80;;;;;;5033429;28;20460;-69
2023/06/08 11:36:42;;;;;;;4.20;3.80;;;26.60;95.30;;;;;;5025002;28;20515;-69
2023/06/08 11:39:08;;;;;;;4.33;3.93;;;26.90;95.30;;;;;;5025054;28;20661;-69
2023/06/08 11:41:35;;;;;;;3.60;3.30;;;27.20;95.50;;;;;;5032943;28;20953;-69
2023/06/08 11:44:02;;;;;;;4.13;2.83;;;27.50;94.70;;;;;;5032978;28;20478;-69
2023/06/08 11:46:30;;;;;;;3.80;3.27;;;27.50;91.80;;;;;;5033010;28;20949;-69
2023/06/08 11:49:11;;;;;;;3.90;3.60;;;27.50;94.00;;;;;;5032952;28;20931;-69
2023/06/08 11:51:48;;;;;;;6.00;4.60;;;27.30;93.50;;;;;;5032918;28;20483;-69
2023/06/08 11:54:15;;;;;;;4.40;4.03;;;26.90;92.00;;;;;;5017038;28;20461;-68
2023/06/08 11:56:45;;;;;;;3.80;3.50;;;26.60;92.00;;;;;;5033293;28;20497;-69
2023/06/08 11:59:12;;;;;;;4.43;4.03;;;26.10;91.30;;;;;;5021141;28;20515;-69
2023/06/08 12:01:54;;;;;;;4.40;4.00;;;25.60;91.60;;;;;;5028406;28;20946;-69
2023/06/08 12:04:30;;;;;;;4.03;3.40;;;25.20;92.60;;;;;;5032715;28;20459;-68
2023/06/08 12:06:58;;;;;;;4.20;3.77;;;24.90;92.50;;;;;;5032692;28;20513;-69
2023/06/08 12:09:25;;;;;;;4.13;3.73;;;24.70;92.10;;;;;;5032305;28;21006;-69
2023/06/08 12:11:53;;;;;;;4.80;3.73;;;24.70;92.30;;;;;;5032659;28;20473;-69
2023/06/08 12:14:19;;;;;;;4.10;3.80;;;24.30;92.30;;;;;;5032548;28;20459;-69
2023/06/08 12:16:46;;;;;;;4.20;3.80;;;24.30;95.30;;;;;;5024405;28;20482;-69
2023/06/08 12:19:13;;;;;;;4.10;3.70;;;24.30;93.80;;;;;;5024211;28;20510;-68
2023/06/08 12:21:44;;;;;;;4.87;4.37;;;24.30;93.60;;;;;;5032249;28;20841;-68
2023/06/08 12:24:11;;;;;;;3.80;3.50;;;24.10;94.70;;;;;;5031820;28;20465;-69
2023/06/08 12:26:37;;;;;;;4.17;3.40;;;23.80;95.30;;;;;;5032594;28;20866;-69
2023/06/08 12:29:05;;;;;;;4.83;3.40;;;23.40;95.60;;;;;;5032151;28;20480;-69
2023/06/08 12:31:32;;;;;;;2.73;2.53;;;23.30;96.50;;;;;;5031989;28;20491;-69
2023/06/08 12:33:59;;;;;;;3.73;3.33;;;23.20;96.20;;;;;;5032276;28;20827;-69
2023/06/08 12:36:26;;;;;;;3.80;3.40;;;23.00;95.80;;;;;;5032141;28;20476;-68
2023/06/08 12:38:55;;;;;;;3.13;2.83;;;22.70;96.10;;;;;;5032112;28;20863;-69
2023/06/08 12:41:22;;;;;;;3.43;3.00;;;22.70;96.10;;;;;;5031770;28;20518;-69
2023/06/08 12:43:50;;;;;;;3.40;2.60;;;22.60;95.20;;;;;;5032041;28;20461;-68
2023/06/08 12:46:19;;;;;;;2.77;2.57;;;22.70;97.00;;;;;;5032133;28;20829;-68
2023/06/08 12:48:45;;;;;;;3.67;2.97;;;23.10;97.10;;;;;;5031978;28;20906;-69
2023/06/08 12:51:12;;;;;;;3.23;2.87;;;23.70;98.90;;;;;;5031325;28;20963;-69
2023/06/08 12:53:39;;;;;;;3.53;3.13;;;24.30;98.50;;;;;;5031728;28;20463;-68